Time,TemperatureF,DewpointF,PressureIn,WindDirection,WindDirectionDegrees,WindSpeedMPH,WindSpeedGustMPH,Humidity,HourlyPrecipIn,Conditions,Clouds,dailyrainin,SoftwareType,DateUTC
2013-05-20 00:02:00,75.0,70.0,29.79,SE,132,3.0,-999.0,85,0.00,,,0.00,,2013-05-20 05:02:00,
2013-05-20 00:12:00,75.0,70.0,29.79,SE,135,5.0,-999.0,85,0.00,,,0.00,,2013-05-20 05:12:00,
2013-05-20 00:21:00,75.0,70.0,29.79,SE,135,5.0,-999.0,85,0.00,,,0.00,,2013-05-20 05:21:00,
2013-05-20 00:32:00,75.0,71.0,29.79,SE,140,7.0,-999.0,86,0.00,,,0.00,,2013-05-20 05:32:00,
2013-05-20 00:42:00,75.0,71.0,29.79,SE,140,7.0,-999.0,86,0.00,,,0.00,,2013-05-20 05:42:00,
2013-05-20 00:52:00,74.0,70.0,29.78,SE,141,6.0,-999.0,87,0.00,,,0.00,,2013-05-20 05:52:00,
2013-05-20 01:01:00,74.0,70.0,29.78,SE,131,3.0,-999.0,88,0.00,,,0.00,,2013-05-20 06:01:00,
2013-05-20 01:11:00,74.0,70.0,29.78,SE,142,3.0,-999.0,88,0.00,,,0.00,,2013-05-20 06:11:00,
2013-05-20 01:21:00,74.0,70.0,29.78,SE,142,3.0,-999.0,88,0.00,,,0.00,,2013-05-20 06:21:00,
2013-05-20 01:32:00,73.0,70.0,29.79,SE,135,4.0,-999.0,89,0.00,,,0.00,,2013-05-20 06:32:00,
2013-05-20 01:41:00,73.0,70.0,29.79,SE,135,4.0,-999.0,89,0.00,,,0.00,,2013-05-20 06:41:00,
2013-05-20 01:52:00,73.0,70.0,29.79,SE,146,4.0,-999.0,89,0.00,,,0.00,,2013-05-20 06:52:00,
2013-05-20 02:02:00,73.0,-99.9,-100.00,SE,141,4.0,-999.0,-999,0.00,,,0.00,,2013-05-20 07:02:00,
2013-05-20 02:12:00,73.0,-99.9,-100.00,SE,141,4.0,-999.0,-999,0.00,,,0.00,,2013-05-20 07:12:00,
2013-05-20 02:21:00,73.0,70.0,29.78,SE,142,4.0,-999.0,90,0.00,,,0.00,,2013-05-20 07:21:00,
2013-05-20 02:32:00,72.0,69.0,29.78,SE,142,4.0,-999.0,90,0.00,,,0.00,,2013-05-20 07:32:00,
2013-05-20 02:42:00,72.0,69.0,29.78,SE,142,4.0,-999.0,90,0.00,,,0.00,,2013-05-20 07:42:00,
2013-05-20 02:52:00,72.0,69.0,29.77,SE,142,2.0,-999.0,91,0.00,,,0.00,,2013-05-20 07:52:00,
2013-05-20 03:01:00,71.0,69.0,29.77,SE,142,2.0,-999.0,92,0.00,,,0.00,,2013-05-20 08:01:00,
2013-05-20 03:11:00,71.0,69.0,29.77,SE,142,2.0,-999.0,92,0.00,,,0.00,,2013-05-20 08:11:00,
2013-05-20 03:22:00,71.0,-99.9,-100.00,SE,142,2.0,-999.0,-999,0.00,,,-99.99,,2013-05-20 08:22:00,
2013-05-20 03:31:00,71.0,69.0,29.76,SE,142,1.0,-999.0,92,0.00,,,0.00,,2013-05-20 08:31:00,
2013-05-20 03:41:00,71.0,69.0,29.76,SE,142,1.0,-999.0,92,0.00,,,0.00,,2013-05-20 08:41:00,
2013-05-20 03:52:00,70.0,68.0,29.76,SE,142,1.0,-999.0,92,0.00,,,0.00,,2013-05-20 08:52:00,
2013-05-20 04:01:00,70.0,68.0,29.76,SE,142,1.0,-999.0,93,0.00,,,0.00,,2013-05-20 09:01:00,
2013-05-20 04:12:00,70.0,68.0,29.76,SE,142,1.0,-999.0,93,0.00,,,0.00,,2013-05-20 09:12:00,
2013-05-20 04:21:00,70.0,68.0,29.76,SE,142,0.0,-999.0,93,0.00,,,0.00,,2013-05-20 09:21:00,
2013-05-20 04:32:00,70.0,68.0,29.76,SE,142,2.0,-999.0,93,0.00,,,0.00,,2013-05-20 09:32:00,
2013-05-20 04:43:00,70.0,68.0,29.76,SE,142,2.0,-999.0,93,0.00,,,0.00,,2013-05-20 09:43:00,
2013-05-20 04:53:00,70.0,68.0,29.75,SE,142,0.0,-999.0,94,0.00,,,0.00,,2013-05-20 09:53:00,
2013-05-20 05:03:00,69.0,67.0,29.75,SE,142,1.0,-999.0,94,0.00,,,0.00,,2013-05-20 10:03:00,
2013-05-20 05:12:00,69.0,67.0,29.75,SE,142,1.0,-999.0,94,0.00,,,0.00,,2013-05-20 10:12:00,
2013-05-20 05:22:00,70.0,68.0,29.75,ESE,123,2.0,-999.0,94,0.00,,,0.00,,2013-05-20 10:22:00,
2013-05-20 05:32:00,70.0,68.0,29.75,SE,132,2.0,-999.0,94,0.00,,,0.00,,2013-05-20 10:32:00,
2013-05-20 05:42:00,70.0,68.0,29.75,SE,132,2.0,-999.0,94,0.00,,,0.00,,2013-05-20 10:42:00,
2013-05-20 05:52:00,70.0,68.0,29.75,SE,141,2.0,-999.0,94,0.00,,,0.00,,2013-05-20 10:52:00,
2013-05-20 06:02:00,71.0,69.0,29.75,SE,141,1.0,-999.0,94,0.00,,,0.00,,2013-05-20 11:02:00,
2013-05-20 06:12:00,71.0,69.0,29.75,SE,141,1.0,-999.0,94,0.00,,,0.00,,2013-05-20 11:12:00,
2013-05-20 06:21:00,71.0,69.0,29.76,SE,141,0.0,-999.0,94,0.00,,,0.00,,2013-05-20 11:21:00,
2013-05-20 06:32:00,71.0,69.0,29.76,SE,141,2.0,-999.0,94,0.00,,,0.00,,2013-05-20 11:32:00,
2013-05-20 06:41:00,71.0,69.0,29.76,SE,141,2.0,-999.0,94,0.00,,,0.00,,2013-05-20 11:41:00,
2013-05-20 06:52:00,71.0,69.0,29.77,SE,141,2.0,-999.0,94,0.00,,,0.00,,2013-05-20 11:52:00,
2013-05-20 07:01:00,71.0,69.0,29.77,SE,126,2.0,-999.0,94,0.00,,,0.00,,2013-05-20 12:01:00,
2013-05-20 07:11:00,71.0,69.0,29.77,SE,126,2.0,-999.0,94,0.00,,,0.00,,2013-05-20 12:11:00,
2013-05-20 07:21:00,71.0,69.0,29.78,SE,134,1.0,-999.0,94,0.00,,,0.00,,2013-05-20 12:21:00,
2013-05-20 07:31:00,72.0,70.0,29.78,SE,132,2.0,-999.0,94,0.00,,,0.00,,2013-05-20 12:31:00,
2013-05-20 07:41:00,72.0,70.0,29.78,SE,132,2.0,-999.0,94,0.00,,,0.00,,2013-05-20 12:41:00,
2013-05-20 07:52:00,72.0,70.0,29.78,SE,141,4.0,-999.0,94,0.00,,,0.00,,2013-05-20 12:52:00,
2013-05-20 08:01:00,73.0,71.0,29.78,ESE,121,3.0,-999.0,94,0.00,,,0.00,,2013-05-20 13:01:00,
2013-05-20 08:11:00,73.0,71.0,29.78,ESE,121,3.0,-999.0,94,0.00,,,0.00,,2013-05-20 13:11:00,
2013-05-20 08:22:00,74.0,72.0,29.78,SE,138,7.0,-999.0,93,0.00,,,0.00,,2013-05-20 13:22:00,
2013-05-20 08:31:00,74.0,72.0,29.79,SE,136,9.0,-999.0,92,0.00,,,0.00,,2013-05-20 13:31:00,
2013-05-20 08:41:00,74.0,72.0,29.79,SE,136,9.0,-999.0,92,0.00,,,0.00,,2013-05-20 13:41:00,
2013-05-20 08:52:00,75.0,72.0,29.79,SE,142,8.0,-999.0,90,0.00,,,0.00,,2013-05-20 13:52:00,
2013-05-20 09:01:00,75.0,72.0,29.80,SE,140,7.0,-999.0,89,0.00,,,0.00,,2013-05-20 14:01:00,
2013-05-20 09:11:00,75.0,72.0,29.80,SE,140,7.0,-999.0,89,0.00,,,0.00,,2013-05-20 14:11:00,
2013-05-20 09:22:00,76.0,72.0,29.80,SE,131,9.0,-999.0,87,0.00,,,0.00,,2013-05-20 14:22:00,
2013-05-20 09:32:00,77.0,72.0,29.80,SSE,150,11.0,-999.0,85,0.00,,,0.00,,2013-05-20 14:32:00,
2013-05-20 09:41:00,77.0,72.0,29.80,SSE,150,11.0,-999.0,85,0.00,,,0.00,,2013-05-20 14:41:00,
2013-05-20 09:52:00,77.0,71.0,29.80,SSE,167,9.0,-999.0,82,0.00,,,0.00,,2013-05-20 14:52:00,
2013-05-20 10:01:00,79.0,73.0,29.80,SE,139,12.0,-999.0,81,0.00,,,0.00,,2013-05-20 15:01:00,
2013-05-20 10:11:00,79.0,73.0,29.80,SE,139,12.0,-999.0,81,0.00,,,0.00,,2013-05-20 15:11:00,
2013-05-20 10:21:00,79.0,71.0,29.80,South,169,8.0,-999.0,77,0.00,,,0.00,,2013-05-20 15:21:00,
2013-05-20 10:33:00,81.0,72.0,29.80,SE,141,12.0,-999.0,75,0.00,,,0.00,,2013-05-20 15:33:00,
2013-05-20 10:42:00,81.0,72.0,29.80,SE,141,12.0,-999.0,75,0.00,,,0.00,,2013-05-20 15:42:00,
2013-05-20 10:53:00,81.0,72.0,29.80,SSE,150,10.0,-999.0,74,0.00,,,0.00,,2013-05-20 15:53:00,
2013-05-20 11:03:00,82.0,71.0,29.79,South,169,9.0,-999.0,70,0.00,,,0.00,,2013-05-20 16:03:00,
2013-05-20 11:12:00,82.0,71.0,29.79,South,169,9.0,-999.0,70,0.00,,,0.00,,2013-05-20 16:12:00,
2013-05-20 11:22:00,83.0,71.0,29.79,SSE,153,10.0,-999.0,68,0.00,,,0.00,,2013-05-20 16:22:00,
2013-05-20 11:33:00,84.0,73.0,29.78,SSE,148,9.0,-999.0,69,0.00,,,0.00,,2013-05-20 16:33:00,
2013-05-20 11:42:00,84.0,73.0,29.78,SSE,148,9.0,-999.0,69,0.00,,,0.00,,2013-05-20 16:42:00,
2013-05-20 11:53:00,84.0,72.0,29.78,SSE,162,12.0,-999.0,67,0.00,,,0.00,,2013-05-20 16:53:00,
2013-05-20 12:02:00,84.0,71.0,29.78,SSE,148,12.0,-999.0,66,0.00,,,0.00,,2013-05-20 17:02:00,
2013-05-20 12:12:00,84.0,71.0,29.78,SSE,148,12.0,-999.0,66,0.00,,,0.00,,2013-05-20 17:12:00,
2013-05-20 12:22:00,85.0,71.0,29.77,SSE,157,12.0,-999.0,64,0.00,,,0.00,,2013-05-20 17:22:00,
2013-05-20 12:33:00,86.0,72.0,29.78,East,94,6.0,-999.0,64,0.00,,,0.00,,2013-05-20 17:33:00,
2013-05-20 12:45:00,86.0,72.0,29.78,East,94,6.0,-999.0,64,0.00,,,0.00,,2013-05-20 17:45:00,
2013-05-20 12:53:00,86.0,72.0,29.77,South,173,7.0,-999.0,63,0.00,,,0.00,,2013-05-20 17:53:00,
2013-05-20 13:02:00,87.0,72.0,29.77,ESE,115,8.0,-999.0,61,0.00,,,0.00,,2013-05-20 18:02:00,
2013-05-20 13:12:00,88.0,73.0,29.76,SE,136,8.0,-999.0,61,0.00,,,0.00,,2013-05-20 18:12:00,
2013-05-20 13:23:00,88.0,73.0,29.76,SE,136,8.0,-999.0,61,0.00,,,0.00,,2013-05-20 18:23:00,
2013-05-20 13:32:00,88.0,71.0,29.75,SE,138,14.0,-999.0,58,0.00,,,0.00,,2013-05-20 18:32:00,
2013-05-20 13:41:00,88.0,71.0,29.75,SE,138,14.0,-999.0,58,0.00,,,0.00,,2013-05-20 18:41:00,
2013-05-20 13:55:00,89.0,72.0,29.75,SE,130,14.0,-999.0,57,0.00,,,0.00,,2013-05-20 18:55:00,
2013-05-20 14:04:00,89.0,72.0,29.74,SE,137,14.0,-999.0,57,0.00,,,0.00,,2013-05-20 19:04:00,
2013-05-20 14:11:00,90.0,72.0,29.74,SSE,149,11.0,-999.0,56,0.00,,,0.00,,2013-05-20 19:11:00,
2013-05-20 14:21:00,90.0,72.0,29.74,SSE,149,11.0,-999.0,56,0.00,,,0.00,,2013-05-20 19:21:00,
2013-05-20 14:32:00,90.0,72.0,29.74,SSE,158,9.0,-999.0,55,0.00,,,0.00,,2013-05-20 19:32:00,
2013-05-20 14:41:00,90.0,72.0,29.74,SE,144,19.0,-999.0,56,0.00,,,0.00,,2013-05-20 19:41:00,
2013-05-20 14:52:00,90.0,72.0,29.74,SE,144,19.0,-999.0,56,0.00,,,0.00,,2013-05-20 19:52:00,
2013-05-20 15:01:00,90.0,72.0,29.72,SE,126,11.0,-999.0,55,0.00,,,0.00,,2013-05-20 20:01:00,
2013-05-20 15:12:00,91.0,73.0,29.72,ESE,123,15.0,-999.0,55,0.00,,,0.00,,2013-05-20 20:12:00,
2013-05-20 15:21:00,91.0,73.0,29.72,ESE,123,15.0,-999.0,55,0.00,,,0.00,,2013-05-20 20:21:00,
2013-05-20 15:32:00,91.0,71.0,29.71,SE,133,10.0,-999.0,53,0.00,,,0.00,,2013-05-20 20:32:00,
2013-05-20 15:42:00,91.0,71.0,29.71,SE,141,11.0,-999.0,53,0.00,,,0.00,,2013-05-20 20:42:00,
2013-05-20 15:52:00,91.0,71.0,29.71,SE,141,11.0,-999.0,53,0.00,,,0.00,,2013-05-20 20:52:00,
2013-05-20 16:01:00,91.0,71.0,29.70,SE,142,16.0,-999.0,53,0.00,,,0.00,,2013-05-20 21:01:00,
2013-05-20 16:11:00,92.0,73.0,29.70,SE,138,6.0,-999.0,54,0.00,,,0.00,,2013-05-20 21:11:00,
2013-05-20 16:21:00,92.0,73.0,29.70,SE,138,6.0,-999.0,54,0.00,,,0.00,,2013-05-20 21:21:00,
2013-05-20 16:32:00,92.0,71.0,29.69,South,169,12.0,-999.0,50,0.00,,,0.00,,2013-05-20 21:32:00,
2013-05-20 16:43:00,92.0,72.0,29.69,SSW,195,11.0,-999.0,52,0.00,,,0.00,,2013-05-20 21:43:00,
2013-05-20 16:53:00,92.0,72.0,29.69,SSW,195,11.0,-999.0,52,0.00,,,0.00,,2013-05-20 21:53:00,
2013-05-20 17:02:00,91.0,72.0,29.68,SE,146,8.0,-999.0,54,0.00,,,0.00,,2013-05-20 22:02:00,
2013-05-20 17:12:00,91.0,71.0,29.67,SSE,147,9.0,-999.0,53,0.00,,,0.00,,2013-05-20 22:12:00,
2013-05-20 17:23:00,91.0,71.0,29.67,SSE,147,9.0,-999.0,53,0.00,,,0.00,,2013-05-20 22:23:00,
2013-05-20 17:33:00,91.0,71.0,29.67,South,169,12.0,-999.0,53,0.00,,,0.00,,2013-05-20 22:33:00,
2013-05-20 17:42:00,91.0,71.0,29.67,South,169,12.0,-999.0,53,0.00,,,0.00,,2013-05-20 22:42:00,
2013-05-20 17:52:00,90.0,71.0,29.66,SSE,150,12.0,-999.0,54,0.00,,,0.00,,2013-05-20 22:52:00,
2013-05-20 18:02:00,90.0,71.0,29.66,ESE,123,14.0,-999.0,53,0.00,,,0.00,,2013-05-20 23:02:00,
2013-05-20 18:12:00,90.0,71.0,29.66,ESE,123,14.0,-999.0,53,0.00,,,0.00,,2013-05-20 23:12:00,
2013-05-20 18:22:00,90.0,71.0,29.65,SSE,161,15.0,-999.0,54,0.00,,,0.00,,2013-05-20 23:22:00,
2013-05-20 18:32:00,90.0,71.0,29.65,SE,140,12.0,-999.0,53,0.00,,,0.00,,2013-05-20 23:32:00,
2013-05-20 18:42:00,90.0,71.0,29.65,SE,140,12.0,-999.0,53,0.00,,,0.00,,2013-05-20 23:42:00,
2013-05-20 18:53:00,90.0,71.0,29.65,SSE,158,8.0,-999.0,53,0.00,,,0.00,,2013-05-20 23:53:00,
2013-05-20 19:01:00,89.0,70.0,29.65,SE,137,13.0,-999.0,54,0.00,,,0.00,,2013-05-21 00:01:00,
2013-05-20 19:11:00,89.0,70.0,29.65,SE,137,13.0,-999.0,54,0.00,,,0.00,,2013-05-21 00:11:00,
2013-05-20 19:21:00,88.0,70.0,29.65,SE,142,14.0,-999.0,56,0.00,,,0.00,,2013-05-21 00:21:00,
2013-05-20 19:31:00,87.0,70.0,29.66,SE,132,9.0,-999.0,57,0.00,,,0.00,,2013-05-21 00:31:00,
2013-05-20 19:41:00,87.0,70.0,29.66,SE,144,9.0,-999.0,58,0.00,,,0.00,,2013-05-21 00:41:00,
2013-05-20 19:52:00,87.0,70.0,29.66,SE,144,9.0,-999.0,58,0.00,,,0.00,,2013-05-21 00:52:00,
2013-05-20 20:01:00,85.0,69.0,29.67,SE,138,9.0,-999.0,58,0.00,,,0.00,,2013-05-21 01:01:00,
2013-05-20 20:11:00,85.0,69.0,29.67,SE,138,9.0,-999.0,58,0.00,,,0.00,,2013-05-21 01:11:00,
2013-05-20 20:21:00,85.0,69.0,29.67,SE,124,10.0,-999.0,59,0.00,,,0.00,,2013-05-21 01:21:00,
2013-05-20 20:32:00,84.0,69.0,29.67,SSE,154,9.0,-999.0,60,0.00,,,0.00,,2013-05-21 01:32:00,
2013-05-20 20:42:00,83.0,68.0,29.68,SE,142,8.0,-999.0,61,0.00,,,0.00,,2013-05-21 01:42:00,
2013-05-20 20:53:00,83.0,68.0,29.68,SE,142,8.0,-999.0,61,0.00,,,0.00,,2013-05-21 01:53:00,
2013-05-20 21:02:00,82.0,68.0,29.68,SE,136,2.0,-999.0,63,0.00,,,0.00,,2013-05-21 02:02:00,
2013-05-20 21:11:00,81.0,68.0,29.71,ESE,123,4.0,-999.0,65,0.00,,,0.00,,2013-05-21 02:11:00,
2013-05-20 21:21:00,81.0,68.0,29.71,ESE,123,4.0,-999.0,65,0.00,,,0.00,,2013-05-21 02:21:00,
2013-05-20 21:32:00,81.0,69.0,29.72,SE,130,6.0,-999.0,66,0.00,,,0.00,,2013-05-21 02:32:00,
2013-05-20 21:41:00,80.0,68.0,29.72,ESE,121,4.0,-999.0,68,0.00,,,0.00,,2013-05-21 02:41:00,
2013-05-20 21:52:00,80.0,68.0,29.72,ESE,121,4.0,-999.0,68,0.00,,,0.00,,2013-05-21 02:52:00,
2013-05-20 22:02:00,80.0,69.0,29.72,ESE,123,8.0,-999.0,69,0.00,,,0.00,,2013-05-21 03:02:00,
2013-05-20 22:11:00,79.0,68.0,29.72,SE,139,8.0,-999.0,70,0.00,,,0.00,,2013-05-21 03:11:00,
2013-05-20 22:21:00,79.0,68.0,29.72,SE,139,8.0,-999.0,70,0.00,,,0.00,,2013-05-21 03:21:00,
2013-05-20 22:33:00,79.0,69.0,29.72,SE,137,6.0,-999.0,71,0.00,,,0.00,,2013-05-21 03:33:00,
2013-05-20 22:43:00,79.0,70.0,29.74,SE,146,5.0,-999.0,73,0.00,,,0.00,,2013-05-21 03:43:00,
2013-05-20 22:53:00,79.0,70.0,29.74,SE,146,5.0,-999.0,73,0.00,,,0.00,,2013-05-21 03:53:00,
2013-05-20 23:03:00,78.0,69.0,29.75,SE,134,7.0,-999.0,75,0.00,,,0.00,,2013-05-21 04:03:00,
2013-05-20 23:13:00,78.0,69.0,29.75,SE,134,7.0,-999.0,75,0.00,,,0.00,,2013-05-21 04:13:00,
2013-05-20 23:23:00,78.0,71.0,29.76,SSE,155,8.0,-999.0,78,0.00,,,0.00,,2013-05-21 04:23:00,
2013-05-20 23:33:00,77.0,70.0,29.76,ESE,117,7.0,-999.0,80,0.00,,,0.00,,2013-05-21 04:33:00,
2013-05-20 23:42:00,77.0,70.0,29.76,ESE,117,7.0,-999.0,80,0.00,,,0.00,,2013-05-21 04:42:00,
2013-05-20 23:53:00,77.0,70.0,29.76,SE,126,5.0,-999.0,80,0.00,,,0.00,,2013-05-21 04:53:00,